sensor_id;sensor_type;location;lat;lon;timestamp;P1;durP1;ratioP1;P2;durP2;ratioP2
55067;SDS011;40965;52.368;9.712;2023-02-07T00:01:14;12.05;;;8.73;;
55067;SDS011;40965;52.368;9.712;2023-02-07T00:03:43;15.43;;;9.13;;
55067;SDS011;40965;52.368;9.712;2023-02-07T00:06:12;14.48;;;9.65;;
55067;SDS011;40965;52.368;9.712;2023-02-07T00:08:43;16.58;;;9.75;;
55067;SDS011;40965;52.368;9.712;2023-02-07T00:11:10;17.63;;;10.20;;
55067;SDS011;40965;52.368;9.712;2023-02-07T00:13:41;20.10;;;10.10;;
55067;SDS011;40965;52.368;9.712;2023-02-07T00:16:09;12.85;;;7.63;;
55067;SDS011;40965;52.368;9.712;2023-02-07T00:18:36;16.73;;;9.85;;
55067;SDS011;40965;52.368;9.712;2023-02-07T00:21:04;17.17;;;10.25;;
55067;SDS011;40965;52.368;9.712;2023-02-07T00:23:36;20.13;;;9.85;;
55067;SDS011;40965;52.368;9.712;2023-02-07T00:26:05;17.10;;;10.80;;
55067;SDS011;40965;52.368;9.712;2023-02-07T00:28:32;20.20;;;10.80;;
55067;SDS011;40965;52.368;9.712;2023-02-07T00:31:03;14.13;;;11.02;;
55067;SDS011;40965;52.368;9.712;2023-02-07T00:33:34;13.20;;;9.25;;
55067;SDS011;40965;52.368;9.712;2023-02-07T00:36:03;14.77;;;9.07;;
55067;SDS011;40965;52.368;9.712;2023-02-07T00:38:32;15.35;;;9.75;;
55067;SDS011;40965;52.368;9.712;2023-02-07T00:40:59;14.85;;;9.40;;
55067;SDS011;40965;52.368;9.712;2023-02-07T00:43:27;14.05;;;8.82;;
55067;SDS011;40965;52.368;9.712;2023-02-07T00:45:55;17.83;;;9.88;;
55067;SDS011;40965;52.368;9.712;2023-02-07T00:48:27;13.05;;;8.98;;
55067;SDS011;40965;52.368;9.712;2023-02-07T00:50:55;17.20;;;9.52;;
55067;SDS011;40965;52.368;9.712;2023-02-07T00:53:22;14.82;;;9.57;;
55067;SDS011;40965;52.368;9.712;2023-02-07T00:55:50;17.90;;;10.40;;
55067;SDS011;40965;52.368;9.712;2023-02-07T00:58:16;17.63;;;10.23;;
55067;SDS011;40965;52.368;9.712;2023-02-07T01:00:43;17.40;;;10.18;;
55067;SDS011;40965;52.368;9.712;2023-02-07T01:03:09;16.27;;;10.65;;
55067;SDS011;40965;52.368;9.712;2023-02-07T01:05:36;19.75;;;10.63;;
55067;SDS011;40965;52.368;9.712;2023-02-07T01:08:03;16.17;;;9.82;;
55067;SDS011;40965;52.368;9.712;2023-02-07T01:10:29;17.60;;;10.55;;
55067;SDS011;40965;52.368;9.712;2023-02-07T01:12:56;16.73;;;10.15;;
55067;SDS011;40965;52.368;9.712;2023-02-07T01:15:23;16.45;;;10.27;;
55067;SDS011;40965;52.368;9.712;2023-02-07T01:17:50;17.27;;;9.25;;
55067;SDS011;40965;52.368;9.712;2023-02-07T01:20:16;17.52;;;10.13;;
55067;SDS011;40965;52.368;9.712;2023-02-07T01:22:43;18.00;;;10.75;;
55067;SDS011;40965;52.368;9.712;2023-02-07T01:25:10;22.08;;;11.35;;
55067;SDS011;40965;52.368;9.712;2023-02-07T01:27:36;16.38;;;9.35;;
55067;SDS011;40965;52.368;9.712;2023-02-07T01:30:04;17.08;;;10.23;;
55067;SDS011;40965;52.368;9.712;2023-02-07T01:32:31;18.45;;;10.32;;
55067;SDS011;40965;52.368;9.712;2023-02-07T01:34:58;15.75;;;9.98;;
55067;SDS011;40965;52.368;9.712;2023-02-07T01:37:24;16.35;;;10.65;;
55067;SDS011;40965;52.368;9.712;2023-02-07T01:39:51;17.88;;;10.20;;
55067;SDS011;40965;52.368;9.712;2023-02-07T01:42:19;13.85;;;9.52;;
55067;SDS011;40965;52.368;9.712;2023-02-07T01:47:19;17.42;;;9.73;;
55067;SDS011;40965;52.368;9.712;2023-02-07T01:49:48;15.63;;;10.35;;
55067;SDS011;40965;52.368;9.712;2023-02-07T01:52:19;19.08;;;10.88;;
55067;SDS011;40965;52.368;9.712;2023-02-07T01:54:52;17.77;;;10.75;;
55067;SDS011;40965;52.368;9.712;2023-02-07T01:57:22;16.10;;;10.10;;
55067;SDS011;40965;52.368;9.712;2023-02-07T01:59:50;17.13;;;9.88;;
55067;SDS011;40965;52.368;9.712;2023-02-07T02:02:27;14.43;;;9.38;;
55067;SDS011;40965;52.368;9.712;2023-02-07T02:05:00;18.30;;;10.43;;
55067;SDS011;40965;52.368;9.712;2023-02-07T02:07:27;18.45;;;11.23;;
55067;SDS011;40965;52.368;9.712;2023-02-07T02:09:56;17.63;;;10.88;;
55067;SDS011;40965;52.368;9.712;2023-02-07T02:15:27;20.60;;;10.43;;
55067;SDS011;40965;52.368;9.712;2023-02-07T02:20:48;15.07;;;8.70;;
55067;SDS011;40965;52.368;9.712;2023-02-07T02:27:29;17.50;;;10.70;;
55067;SDS011;40965;52.368;9.712;2023-02-07T02:30:23;17.75;;;11.32;;
55067;SDS011;40965;52.368;9.712;2023-02-07T02:34:16;18.23;;;10.20;;
55067;SDS011;40965;52.368;9.712;2023-02-07T02:36:46;18.50;;;10.93;;
55067;SDS011;40965;52.368;9.712;2023-02-07T02:39:41;24.92;;;11.45;;
55067;SDS011;40965;52.368;9.712;2023-02-07T02:42:59;17.90;;;11.45;;
55067;SDS011;40965;52.368;9.712;2023-02-07T02:45:20;19.15;;;11.05;;
55067;SDS011;40965;52.368;9.712;2023-02-07T02:47:54;17.33;;;10.02;;
55067;SDS011;40965;52.368;9.712;2023-02-07T02:50:23;22.02;;;11.98;;
55067;SDS011;40965;52.368;9.712;2023-02-07T02:52:52;22.65;;;11.77;;
55067;SDS011;40965;52.368;9.712;2023-02-07T02:55:21;17.48;;;11.02;;
55067;SDS011;40965;52.368;9.712;2023-02-07T02:58:25;21.33;;;10.63;;
55067;SDS011;40965;52.368;9.712;2023-02-07T03:01:22;18.77;;;11.38;;
55067;SDS011;40965;52.368;9.712;2023-02-07T03:07:21;19.85;;;10.60;;
55067;SDS011;40965;52.368;9.712;2023-02-07T03:10:17;19.88;;;10.68;;
55067;SDS011;40965;52.368;9.712;2023-02-07T03:12:56;16.88;;;11.13;;
55067;SDS011;40965;52.368;9.712;2023-02-07T03:21:40;20.23;;;11.52;;
55067;SDS011;40965;52.368;9.712;2023-02-07T03:24:13;18.70;;;10.23;;
55067;SDS011;40965;52.368;9.712;2023-02-07T03:26:44;18.95;;;11.23;;
55067;SDS011;40965;52.368;9.712;2023-02-07T03:29:13;17.25;;;9.70;;
55067;SDS011;40965;52.368;9.712;2023-02-07T03:31:43;21.17;;;11.55;;
55067;SDS011;40965;52.368;9.712;2023-02-07T03:34:15;21.92;;;12.07;;
55067;SDS011;40965;52.368;9.712;2023-02-07T03:36:56;21.92;;;11.32;;
55067;SDS011;40965;52.368;9.712;2023-02-07T03:39:28;21.40;;;11.23;;
55067;SDS011;40965;52.368;9.712;2023-02-07T03:41:56;21.42;;;12.63;;
55067;SDS011;40965;52.368;9.712;2023-02-07T03:44:27;19.35;;;10.80;;
55067;SDS011;40965;52.368;9.712;2023-02-07T03:46:56;21.02;;;11.20;;
55067;SDS011;40965;52.368;9.712;2023-02-07T03:49:23;20.80;;;12.15;;
55067;SDS011;40965;52.368;9.712;2023-02-07T03:51:49;19.85;;;11.27;;
55067;SDS011;40965;52.368;9.712;2023-02-07T03:54:16;14.38;;;10.38;;
55067;SDS011;40965;52.368;9.712;2023-02-07T03:56:43;21.50;;;11.55;;
55067;SDS011;40965;52.368;9.712;2023-02-07T03:59:10;21.98;;;11.65;;
55067;SDS011;40965;52.368;9.712;2023-02-07T04:01:36;20.67;;;11.70;;
55067;SDS011;40965;52.368;9.712;2023-02-07T04:04:06;24.45;;;12.05;;
55067;SDS011;40965;52.368;9.712;2023-02-07T04:06:34;19.02;;;12.10;;
55067;SDS011;40965;52.368;9.712;2023-02-07T04:09:01;22.13;;;11.75;;
55067;SDS011;40965;52.368;9.712;2023-02-07T04:11:27;19.70;;;12.32;;
55067;SDS011;40965;52.368;9.712;2023-02-07T04:13:54;19.77;;;12.32;;
55067;SDS011;40965;52.368;9.712;2023-02-07T04:16:21;24.02;;;12.90;;
55067;SDS011;40965;52.368;9.712;2023-02-07T04:18:47;19.50;;;12.15;;
55067;SDS011;40965;52.368;9.712;2023-02-07T04:21:14;23.27;;;11.63;;
55067;SDS011;40965;52.368;9.712;2023-02-07T04:23:40;21.77;;;12.25;;
55067;SDS011;40965;52.368;9.712;2023-02-07T04:26:07;31.88;;;13.05;;
55067;SDS011;40965;52.368;9.712;2023-02-07T04:28:33;21.38;;;12.43;;
55067;SDS011;40965;52.368;9.712;2023-02-07T04:31:00;22.90;;;12.13;;
55067;SDS011;40965;52.368;9.712;2023-02-07T04:33:26;25.45;;;12.75;;
55067;SDS011;40965;52.368;9.712;2023-02-07T04:35:56;24.02;;;13.75;;
55067;SDS011;40965;52.368;9.712;2023-02-07T04:38:25;26.92;;;13.77;;
55067;SDS011;40965;52.368;9.712;2023-02-07T04:40:56;22.85;;;12.68;;
55067;SDS011;40965;52.368;9.712;2023-02-07T04:43:28;22.27;;;13.97;;
55067;SDS011;40965;52.368;9.712;2023-02-07T04:45:59;26.23;;;14.67;;
55067;SDS011;40965;52.368;9.712;2023-02-07T04:48:26;23.92;;;13.45;;
55067;SDS011;40965;52.368;9.712;2023-02-07T04:50:53;23.67;;;13.55;;
55067;SDS011;40965;52.368;9.712;2023-02-07T04:53:20;20.25;;;13.15;;
55067;SDS011;40965;52.368;9.712;2023-02-07T04:55:47;20.20;;;13.13;;
55067;SDS011;40965;52.368;9.712;2023-02-07T04:58:14;19.25;;;11.88;;
55067;SDS011;40965;52.368;9.712;2023-02-07T05:00:41;24.98;;;13.32;;
55067;SDS011;40965;52.368;9.712;2023-02-07T05:03:07;26.33;;;14.35;;
55067;SDS011;40965;52.368;9.712;2023-02-07T05:05:36;23.13;;;13.02;;
55067;SDS011;40965;52.368;9.712;2023-02-07T05:08:07;25.67;;;14.80;;
55067;SDS011;40965;52.368;9.712;2023-02-07T05:10:34;22.30;;;13.13;;
55067;SDS011;40965;52.368;9.712;2023-02-07T05:13:02;23.25;;;13.52;;
55067;SDS011;40965;52.368;9.712;2023-02-07T05:15:30;25.23;;;14.53;;
55067;SDS011;40965;52.368;9.712;2023-02-07T05:17:57;26.10;;;14.60;;
55067;SDS011;40965;52.368;9.712;2023-02-07T05:20:26;25.40;;;14.70;;
55067;SDS011;40965;52.368;9.712;2023-02-07T05:22:53;25.02;;;14.15;;
55067;SDS011;40965;52.368;9.712;2023-02-07T05:25:20;21.67;;;13.30;;
55067;SDS011;40965;52.368;9.712;2023-02-07T05:27:46;22.75;;;15.45;;
55067;SDS011;40965;52.368;9.712;2023-02-07T05:30:13;26.83;;;15.93;;
55067;SDS011;40965;52.368;9.712;2023-02-07T05:32:39;23.73;;;14.07;;
55067;SDS011;40965;52.368;9.712;2023-02-07T05:35:23;25.33;;;13.48;;
55067;SDS011;40965;52.368;9.712;2023-02-07T05:37:50;23.30;;;12.90;;
55067;SDS011;40965;52.368;9.712;2023-02-07T05:40:17;27.20;;;15.07;;
55067;SDS011;40965;52.368;9.712;2023-02-07T05:42:44;26.50;;;15.48;;
55067;SDS011;40965;52.368;9.712;2023-02-07T05:45:10;25.85;;;14.93;;
55067;SDS011;40965;52.368;9.712;2023-02-07T05:47:37;26.97;;;15.23;;
55067;SDS011;40965;52.368;9.712;2023-02-07T05:50:04;25.23;;;13.95;;
55067;SDS011;40965;52.368;9.712;2023-02-07T05:52:31;26.30;;;14.07;;
55067;SDS011;40965;52.368;9.712;2023-02-07T05:54:57;27.83;;;13.10;;
55067;SDS011;40965;52.368;9.712;2023-02-07T05:57:27;25.38;;;13.55;;
55067;SDS011;40965;52.368;9.712;2023-02-07T05:59:53;38.97;;;15.70;;
55067;SDS011;40965;52.368;9.712;2023-02-07T06:02:20;30.83;;;14.40;;
55067;SDS011;40965;52.368;9.712;2023-02-07T06:04:46;25.93;;;14.20;;
55067;SDS011;40965;52.368;9.712;2023-02-07T06:07:13;25.53;;;13.97;;
55067;SDS011;40965;52.368;9.712;2023-02-07T06:09:39;33.53;;;16.40;;
55067;SDS011;40965;52.368;9.712;2023-02-07T06:12:06;28.90;;;14.77;;
55067;SDS011;40965;52.368;9.712;2023-02-07T06:14:32;28.80;;;15.83;;
55067;SDS011;40965;52.368;9.712;2023-02-07T06:16:59;25.73;;;13.50;;
55067;SDS011;40965;52.368;9.712;2023-02-07T06:19:25;24.10;;;13.70;;
55067;SDS011;40965;52.368;9.712;2023-02-07T06:21:52;29.80;;;14.20;;
55067;SDS011;40965;52.368;9.712;2023-02-07T06:24:18;30.08;;;15.43;;
55067;SDS011;40965;52.368;9.712;2023-02-07T06:26:46;25.93;;;14.63;;
55067;SDS011;40965;52.368;9.712;2023-02-07T06:29:13;27.53;;;15.60;;
55067;SDS011;40965;52.368;9.712;2023-02-07T06:31:39;28.47;;;14.47;;
55067;SDS011;40965;52.368;9.712;2023-02-07T06:34:06;31.23;;;16.20;;
55067;SDS011;40965;52.368;9.712;2023-02-07T06:36:32;29.63;;;16.57;;
55067;SDS011;40965;52.368;9.712;2023-02-07T06:38:59;31.23;;;15.17;;
55067;SDS011;40965;52.368;9.712;2023-02-07T06:41:25;32.00;;;15.67;;
55067;SDS011;40965;52.368;9.712;2023-02-07T06:43:52;25.53;;;14.43;;
55067;SDS011;40965;52.368;9.712;2023-02-07T06:46:18;35.90;;;16.07;;
55067;SDS011;40965;52.368;9.712;2023-02-07T06:48:44;27.43;;;15.30;;
55067;SDS011;40965;52.368;9.712;2023-02-07T06:51:12;30.27;;;14.97;;
55067;SDS011;40965;52.368;9.712;2023-02-07T06:53:38;35.33;;;17.10;;
55067;SDS011;40965;52.368;9.712;2023-02-07T06:56:05;35.07;;;16.33;;
55067;SDS011;40965;52.368;9.712;2023-02-07T06:58:32;30.80;;;15.33;;
55067;SDS011;40965;52.368;9.712;2023-02-07T07:01:02;28.13;;;15.90;;
55067;SDS011;40965;52.368;9.712;2023-02-07T07:03:30;27.83;;;14.67;;
55067;SDS011;40965;52.368;9.712;2023-02-07T07:05:56;29.30;;;14.37;;
55067;SDS011;40965;52.368;9.712;2023-02-07T07:08:23;29.40;;;15.27;;
55067;SDS011;40965;52.368;9.712;2023-02-07T07:10:51;29.00;;;15.27;;
55067;SDS011;40965;52.368;9.712;2023-02-07T07:13:18;26.87;;;15.80;;
55067;SDS011;40965;52.368;9.712;2023-02-07T07:15:45;33.53;;;15.60;;
55067;SDS011;40965;52.368;9.712;2023-02-07T07:18:12;31.23;;;16.57;;
55067;SDS011;40965;52.368;9.712;2023-02-07T07:20:38;26.00;;;14.47;;
55067;SDS011;40965;52.368;9.712;2023-02-07T07:23:05;27.03;;;16.03;;
55067;SDS011;40965;52.368;9.712;2023-02-07T07:25:31;30.90;;;14.75;;
55067;SDS011;40965;52.368;9.712;2023-02-07T07:27:58;32.73;;;16.60;;
55067;SDS011;40965;52.368;9.712;2023-02-07T07:30:24;30.83;;;17.03;;
55067;SDS011;40965;52.368;9.712;2023-02-07T07:32:51;30.70;;;16.40;;
55067;SDS011;40965;52.368;9.712;2023-02-07T07:35:17;34.20;;;17.23;;
55067;SDS011;40965;52.368;9.712;2023-02-07T07:37:44;33.27;;;17.17;;
55067;SDS011;40965;52.368;9.712;2023-02-07T07:40:10;34.27;;;15.73;;
55067;SDS011;40965;52.368;9.712;2023-02-07T07:42:37;31.92;;;17.85;;
55067;SDS011;40965;52.368;9.712;2023-02-07T07:45:03;26.58;;;16.25;;
55067;SDS011;40965;52.368;9.712;2023-02-07T07:47:30;30.23;;;15.70;;
55067;SDS011;40965;52.368;9.712;2023-02-07T07:49:57;25.95;;;13.90;;
55067;SDS011;40965;52.368;9.712;2023-02-07T07:52:23;22.80;;;13.50;;
55067;SDS011;40965;52.368;9.712;2023-02-07T07:54:50;27.87;;;14.13;;
55067;SDS011;40965;52.368;9.712;2023-02-07T07:57:16;30.40;;;14.43;;
55067;SDS011;40965;52.368;9.712;2023-02-07T07:59:43;26.93;;;14.23;;
55067;SDS011;40965;52.368;9.712;2023-02-07T08:02:12;24.90;;;14.23;;
55067;SDS011;40965;52.368;9.712;2023-02-07T08:04:39;27.63;;;13.85;;
55067;SDS011;40965;52.368;9.712;2023-02-07T08:07:05;23.20;;;14.00;;
55067;SDS011;40965;52.368;9.712;2023-02-07T08:09:32;29.38;;;15.57;;
55067;SDS011;40965;52.368;9.712;2023-02-07T08:11:58;24.50;;;12.75;;
55067;SDS011;40965;52.368;9.712;2023-02-07T08:14:25;30.27;;;14.00;;
55067;SDS011;40965;52.368;9.712;2023-02-07T08:16:51;29.45;;;15.55;;
55067;SDS011;40965;52.368;9.712;2023-02-07T08:19:18;23.25;;;14.43;;
55067;SDS011;40965;52.368;9.712;2023-02-07T08:21:45;24.60;;;14.35;;
55067;SDS011;40965;52.368;9.712;2023-02-07T08:24:11;24.98;;;14.02;;
55067;SDS011;40965;52.368;9.712;2023-02-07T08:26:37;26.23;;;14.48;;
55067;SDS011;40965;52.368;9.712;2023-02-07T08:29:04;23.45;;;13.00;;
55067;SDS011;40965;52.368;9.712;2023-02-07T08:31:31;23.80;;;13.07;;
55067;SDS011;40965;52.368;9.712;2023-02-07T08:33:57;26.75;;;12.98;;
55067;SDS011;40965;52.368;9.712;2023-02-07T08:36:24;26.38;;;15.77;;
55067;SDS011;40965;52.368;9.712;2023-02-07T08:38:50;18.50;;;12.02;;
55067;SDS011;40965;52.368;9.712;2023-02-07T08:41:17;23.38;;;12.45;;
55067;SDS011;40965;52.368;9.712;2023-02-07T08:43:44;26.63;;;14.15;;
55067;SDS011;40965;52.368;9.712;2023-02-07T08:46:10;23.25;;;13.00;;
55067;SDS011;40965;52.368;9.712;2023-02-07T08:48:37;25.20;;;13.60;;
55067;SDS011;40965;52.368;9.712;2023-02-07T08:51:04;25.73;;;12.10;;
55067;SDS011;40965;52.368;9.712;2023-02-07T08:53:32;22.58;;;13.98;;
55067;SDS011;40965;52.368;9.712;2023-02-07T08:55:58;21.65;;;12.32;;
55067;SDS011;40965;52.368;9.712;2023-02-07T08:58:25;19.58;;;12.43;;
55067;SDS011;40965;52.368;9.712;2023-02-07T09:00:52;26.30;;;12.45;;
55067;SDS011;40965;52.368;9.712;2023-02-07T09:03:19;19.33;;;11.15;;
55067;SDS011;40965;52.368;9.712;2023-02-07T09:05:45;22.98;;;12.55;;
55067;SDS011;40965;52.368;9.712;2023-02-07T09:08:12;18.75;;;12.32;;
55067;SDS011;40965;52.368;9.712;2023-02-07T09:10:38;17.17;;;10.80;;
55067;SDS011;40965;52.368;9.712;2023-02-07T09:13:05;21.27;;;13.50;;
55067;SDS011;40965;52.368;9.712;2023-02-07T09:15:31;16.90;;;12.75;;
55067;SDS011;40965;52.368;9.712;2023-02-07T09:17:58;19.23;;;10.98;;
55067;SDS011;40965;52.368;9.712;2023-02-07T09:20:25;16.90;;;11.50;;
55067;SDS011;40965;52.368;9.712;2023-02-07T09:22:52;20.15;;;11.90;;
55067;SDS011;40965;52.368;9.712;2023-02-07T09:25:37;19.60;;;11.05;;
55067;SDS011;40965;52.368;9.712;2023-02-07T09:28:04;18.42;;;11.75;;
55067;SDS011;40965;52.368;9.712;2023-02-07T09:30:30;19.63;;;11.23;;
55067;SDS011;40965;52.368;9.712;2023-02-07T09:32:57;15.70;;;10.70;;
55067;SDS011;40965;52.368;9.712;2023-02-07T09:35:23;19.73;;;11.93;;
55067;SDS011;40965;52.368;9.712;2023-02-07T09:37:53;19.23;;;10.80;;
55067;SDS011;40965;52.368;9.712;2023-02-07T09:40:20;20.30;;;11.93;;
55067;SDS011;40965;52.368;9.712;2023-02-07T09:42:55;20.60;;;11.45;;
55067;SDS011;40965;52.368;9.712;2023-02-07T09:45:33;15.20;;;9.77;;
55067;SDS011;40965;52.368;9.712;2023-02-07T09:48:09;18.70;;;11.02;;
55067;SDS011;40965;52.368;9.712;2023-02-07T09:50:51;13.35;;;9.98;;
55067;SDS011;40965;52.368;9.712;2023-02-07T09:53:24;13.68;;;9.95;;
55067;SDS011;40965;52.368;9.712;2023-02-07T09:56:00;19.02;;;11.15;;
55067;SDS011;40965;52.368;9.712;2023-02-07T10:01:02;17.67;;;11.73;;
55067;SDS011;40965;52.368;9.712;2023-02-07T10:03:42;12.40;;;9.48;;
55067;SDS011;40965;52.368;9.712;2023-02-07T10:06:21;18.20;;;10.90;;
55067;SDS011;40965;52.368;9.712;2023-02-07T10:08:55;13.45;;;10.23;;
55067;SDS011;40965;52.368;9.712;2023-02-07T10:14:27;14.77;;;9.90;;
55067;SDS011;40965;52.368;9.712;2023-02-07T10:17:17;17.38;;;10.88;;
55067;SDS011;40965;52.368;9.712;2023-02-07T10:22:58;14.30;;;9.55;;
55067;SDS011;40965;52.368;9.712;2023-02-07T10:28:50;17.75;;;11.50;;
55067;SDS011;40965;52.368;9.712;2023-02-07T10:31:46;14.82;;;11.35;;
55067;SDS011;40965;52.368;9.712;2023-02-07T10:34:23;20.33;;;10.85;;
55067;SDS011;40965;52.368;9.712;2023-02-07T10:36:56;14.93;;;8.93;;
55067;SDS011;40965;52.368;9.712;2023-02-07T10:39:24;16.50;;;10.55;;
55067;SDS011;40965;52.368;9.712;2023-02-07T10:41:58;15.32;;;10.43;;
55067;SDS011;40965;52.368;9.712;2023-02-07T10:44:25;19.90;;;10.25;;
55067;SDS011;40965;52.368;9.712;2023-02-07T10:46:59;18.35;;;11.15;;
55067;SDS011;40965;52.368;9.712;2023-02-07T10:49:29;19.80;;;11.18;;
55067;SDS011;40965;52.368;9.712;2023-02-07T10:52:06;16.33;;;10.00;;
55067;SDS011;40965;52.368;9.712;2023-02-07T10:55:03;18.92;;;10.30;;
55067;SDS011;40965;52.368;9.712;2023-02-07T10:57:33;16.02;;;9.85;;
55067;SDS011;40965;52.368;9.712;2023-02-07T11:00:16;20.15;;;11.07;;
55067;SDS011;40965;52.368;9.712;2023-02-07T11:02:54;15.52;;;9.50;;
55067;SDS011;40965;52.368;9.712;2023-02-07T11:05:37;15.70;;;9.93;;
55067;SDS011;40965;52.368;9.712;2023-02-07T11:08:20;15.70;;;9.60;;
55067;SDS011;40965;52.368;9.712;2023-02-07T11:10:57;13.55;;;9.52;;
55067;SDS011;40965;52.368;9.712;2023-02-07T11:13:27;11.88;;;8.68;;
55067;SDS011;40965;52.368;9.712;2023-02-07T11:16:04;14.73;;;9.23;;
55067;SDS011;40965;52.368;9.712;2023-02-07T11:18:43;17.38;;;10.52;;
55067;SDS011;40965;52.368;9.712;2023-02-07T11:24:13;18.63;;;10.65;;
55067;SDS011;40965;52.368;9.712;2023-02-07T11:26:52;17.50;;;9.52;;
55067;SDS011;40965;52.368;9.712;2023-02-07T11:29:22;16.80;;;9.30;;
55067;SDS011;40965;52.368;9.712;2023-02-07T11:31:52;13.77;;;8.65;;
55067;SDS011;40965;52.368;9.712;2023-02-07T11:40:36;12.18;;;7.63;;
55067;SDS011;40965;52.368;9.712;2023-02-07T11:43:14;16.45;;;8.10;;
55067;SDS011;40965;52.368;9.712;2023-02-07T11:45:50;13.48;;;7.72;;
55067;SDS011;40965;52.368;9.712;2023-02-07T11:48:28;16.02;;;8.65;;
55067;SDS011;40965;52.368;9.712;2023-02-07T11:51:00;11.43;;;7.32;;
55067;SDS011;40965;52.368;9.712;2023-02-07T11:53:35;13.95;;;8.90;;
55067;SDS011;40965;52.368;9.712;2023-02-07T11:56:20;11.18;;;7.25;;
55067;SDS011;40965;52.368;9.712;2023-02-07T11:58:50;11.48;;;7.45;;
55067;SDS011;40965;52.368;9.712;2023-02-07T12:01:29;14.23;;;6.97;;
55067;SDS011;40965;52.368;9.712;2023-02-07T12:04:01;9.98;;;6.40;;
55067;SDS011;40965;52.368;9.712;2023-02-07T12:09:27;48.92;;;25.60;;
55067;SDS011;40965;52.368;9.712;2023-02-07T12:15:49;9.70;;;5.38;;
55067;SDS011;40965;52.368;9.712;2023-02-07T12:18:28;8.48;;;5.57;;
55067;SDS011;40965;52.368;9.712;2023-02-07T12:21:18;8.45;;;6.05;;
55067;SDS011;40965;52.368;9.712;2023-02-07T12:23:53;7.45;;;5.75;;
55067;SDS011;40965;52.368;9.712;2023-02-07T12:26:29;8.27;;;5.88;;
55067;SDS011;40965;52.368;9.712;2023-02-07T12:37:56;9.30;;;6.47;;
55067;SDS011;40965;52.368;9.712;2023-02-07T12:41:09;8.80;;;5.70;;
55067;SDS011;40965;52.368;9.712;2023-02-07T12:46:52;9.82;;;5.85;;
55067;SDS011;40965;52.368;9.712;2023-02-07T12:55:47;7.30;;;5.60;;
55067;SDS011;40965;52.368;9.712;2023-02-07T13:07:23;9.48;;;6.80;;
55067;SDS011;40965;52.368;9.712;2023-02-07T13:10:12;11.25;;;6.60;;
55067;SDS011;40965;52.368;9.712;2023-02-07T13:12:56;10.35;;;7.05;;
55067;SDS011;40965;52.368;9.712;2023-02-07T13:15:54;9.48;;;6.53;;
55067;SDS011;40965;52.368;9.712;2023-02-07T13:18:56;7.50;;;5.22;;
55067;SDS011;40965;52.368;9.712;2023-02-07T13:24:32;10.75;;;6.50;;
55067;SDS011;40965;52.368;9.712;2023-02-07T13:27:04;10.88;;;5.88;;
55067;SDS011;40965;52.368;9.712;2023-02-07T13:29:37;9.27;;;6.30;;
55067;SDS011;40965;52.368;9.712;2023-02-07T13:32:06;8.63;;;6.40;;
55067;SDS011;40965;52.368;9.712;2023-02-07T13:37:36;11.13;;;6.70;;
55067;SDS011;40965;52.368;9.712;2023-02-07T13:52:29;11.38;;;7.10;;
55067;SDS011;40965;52.368;9.712;2023-02-07T13:58:02;10.75;;;7.13;;
55067;SDS011;40965;52.368;9.712;2023-02-07T14:03:30;9.73;;;6.90;;
55067;SDS011;40965;52.368;9.712;2023-02-07T14:09:02;10.73;;;7.30;;
55067;SDS011;40965;52.368;9.712;2023-02-07T14:12:01;8.48;;;6.47;;
55067;SDS011;40965;52.368;9.712;2023-02-07T14:14:37;8.80;;;6.57;;
55067;SDS011;40965;52.368;9.712;2023-02-07T14:17:07;10.40;;;6.57;;
55067;SDS011;40965;52.368;9.712;2023-02-07T14:22:27;10.77;;;6.43;;
55067;SDS011;40965;52.368;9.712;2023-02-07T14:30:35;12.82;;;8.15;;
55067;SDS011;40965;52.368;9.712;2023-02-07T14:33:37;17.33;;;8.60;;
55067;SDS011;40965;52.368;9.712;2023-02-07T14:38:42;10.00;;;6.90;;
55067;SDS011;40965;52.368;9.712;2023-02-07T14:41:32;11.43;;;7.00;;
55067;SDS011;40965;52.368;9.712;2023-02-07T14:44:03;12.98;;;7.32;;
55067;SDS011;40965;52.368;9.712;2023-02-07T14:46:37;11.15;;;8.55;;
55067;SDS011;40965;52.368;9.712;2023-02-07T14:49:23;11.50;;;7.53;;
55067;SDS011;40965;52.368;9.712;2023-02-07T14:51:59;11.88;;;7.43;;
55067;SDS011;40965;52.368;9.712;2023-02-07T14:54:34;14.15;;;8.65;;
55067;SDS011;40965;52.368;9.712;2023-02-07T15:00:26;14.25;;;8.65;;
55067;SDS011;40965;52.368;9.712;2023-02-07T15:03:09;11.25;;;7.20;;
55067;SDS011;40965;52.368;9.712;2023-02-07T15:05:52;15.73;;;9.32;;
55067;SDS011;40965;52.368;9.712;2023-02-07T15:08:25;14.88;;;8.55;;
55067;SDS011;40965;52.368;9.712;2023-02-07T15:11:06;14.23;;;7.30;;
55067;SDS011;40965;52.368;9.712;2023-02-07T15:13:38;10.52;;;6.88;;
55067;SDS011;40965;52.368;9.712;2023-02-07T15:16:12;12.38;;;7.68;;
55067;SDS011;40965;52.368;9.712;2023-02-07T15:19:02;13.73;;;8.57;;
55067;SDS011;40965;52.368;9.712;2023-02-07T15:21:40;21.23;;;9.48;;
55067;SDS011;40965;52.368;9.712;2023-02-07T15:24:15;15.07;;;8.23;;
55067;SDS011;40965;52.368;9.712;2023-02-07T15:27:34;14.80;;;9.10;;
55067;SDS011;40965;52.368;9.712;2023-02-07T15:29:55;13.80;;;8.57;;
55067;SDS011;40965;52.368;9.712;2023-02-07T15:35:06;12.25;;;8.15;;
55067;SDS011;40965;52.368;9.712;2023-02-07T15:37:41;14.02;;;8.35;;
55067;SDS011;40965;52.368;9.712;2023-02-07T15:40:13;14.05;;;7.72;;
55067;SDS011;40965;52.368;9.712;2023-02-07T15:42:53;14.10;;;7.93;;
55067;SDS011;40965;52.368;9.712;2023-02-07T15:45:23;10.98;;;8.00;;
55067;SDS011;40965;52.368;9.712;2023-02-07T15:47:56;13.65;;;7.63;;
55067;SDS011;40965;52.368;9.712;2023-02-07T15:50:27;13.18;;;7.85;;
55067;SDS011;40965;52.368;9.712;2023-02-07T15:52:56;15.55;;;7.95;;
55067;SDS011;40965;52.368;9.712;2023-02-07T15:55:36;15.20;;;8.00;;
55067;SDS011;40965;52.368;9.712;2023-02-07T15:58:16;13.27;;;8.32;;
55067;SDS011;40965;52.368;9.712;2023-02-07T16:00:59;13.15;;;7.88;;
55067;SDS011;40965;52.368;9.712;2023-02-07T16:03:30;10.40;;;7.40;;
55067;SDS011;40965;52.368;9.712;2023-02-07T16:06:15;15.05;;;8.45;;
55067;SDS011;40965;52.368;9.712;2023-02-07T16:08:46;11.48;;;6.90;;
55067;SDS011;40965;52.368;9.712;2023-02-07T16:13:51;12.25;;;7.65;;
55067;SDS011;40965;52.368;9.712;2023-02-07T16:16:23;13.25;;;6.95;;
55067;SDS011;40965;52.368;9.712;2023-02-07T16:24:15;11.55;;;7.50;;
55067;SDS011;40965;52.368;9.712;2023-02-07T16:26:45;14.05;;;7.10;;
55067;SDS011;40965;52.368;9.712;2023-02-07T16:29:17;12.55;;;7.50;;
55067;SDS011;40965;52.368;9.712;2023-02-07T16:31:48;11.35;;;6.60;;
55067;SDS011;40965;52.368;9.712;2023-02-07T16:34:17;9.90;;;6.13;;
55067;SDS011;40965;52.368;9.712;2023-02-07T16:36:49;14.70;;;7.95;;
55067;SDS011;40965;52.368;9.712;2023-02-07T16:39:18;16.87;;;8.30;;
55067;SDS011;40965;52.368;9.712;2023-02-07T16:41:46;11.00;;;7.30;;
55067;SDS011;40965;52.368;9.712;2023-02-07T16:44:18;11.60;;;7.47;;
55067;SDS011;40965;52.368;9.712;2023-02-07T16:46:49;18.17;;;8.48;;
55067;SDS011;40965;52.368;9.712;2023-02-07T16:49:23;13.82;;;8.25;;
55067;SDS011;40965;52.368;9.712;2023-02-07T16:51:52;16.10;;;8.18;;
55067;SDS011;40965;52.368;9.712;2023-02-07T16:54:18;14.02;;;7.22;;
55067;SDS011;40965;52.368;9.712;2023-02-07T16:56:47;13.70;;;7.53;;
55067;SDS011;40965;52.368;9.712;2023-02-07T16:59:18;15.60;;;7.63;;
55067;SDS011;40965;52.368;9.712;2023-02-07T17:01:47;16.02;;;8.15;;